sensor_id;sensor_type;location;lat;lon;timestamp;pressure;altitude;pressure_sealevel;temperature;humidity
3668;BME280;24099;47.102;15.440;2023-04-10T00:00:15;97943.25;;;3.21;100.00
3668;BME280;24099;47.102;15.440;2023-04-10T00:02:46;97944.06;;;3.10;100.00
3668;BME280;24099;47.102;15.440;2023-04-10T00:05:14;97941.13;;;3.15;100.00
3668;BME280;24099;47.102;15.440;2023-04-10T00:07:42;97938.97;;;3.20;100.00
3668;BME280;24099;47.102;15.440;2023-04-10T00:10:10;97938.19;;;3.31;100.00
3668;BME280;24099;47.102;15.440;2023-04-10T00:12:39;97935.91;;;3.26;100.00
3668;BME280;24099;47.102;15.440;2023-04-10T00:15:07;97936.63;;;3.28;100.00
3668;BME280;24099;47.102;15.440;2023-04-10T00:17:35;97938.78;;;3.34;100.00
3668;BME280;24099;47.102;15.440;2023-04-10T00:20:04;97939.13;;;3.19;100.00
3668;BME280;24099;47.102;15.440;2023-04-10T00:22:32;97934.38;;;3.24;100.00
3668;BME280;24099;47.102;15.440;2023-04-10T00:25:00;97933.94;;;3.19;100.00
3668;BME280;24099;47.102;15.440;2023-04-10T00:27:28;97931.09;;;3.33;100.00
3668;BME280;24099;47.102;15.440;2023-04-10T00:30:00;97932.38;;;3.27;100.00
3668;BME280;24099;47.102;15.440;2023-04-10T00:32:28;97935.44;;;3.21;100.00
3668;BME280;24099;47.102;15.440;2023-04-10T00:34:56;97932.03;;;3.32;100.00
3668;BME280;24099;47.102;15.440;2023-04-10T00:37:24;97923.63;;;3.17;100.00
3668;BME280;24099;47.102;15.440;2023-04-10T00:39:52;97929.28;;;3.11;100.00
3668;BME280;24099;47.102;15.440;2023-04-10T00:42:20;97932.50;;;3.26;100.00
3668;BME280;24099;47.102;15.440;2023-04-10T00:44:48;97928.91;;;3.04;100.00
3668;BME280;24099;47.102;15.440;2023-04-10T00:47:17;97923.63;;;3.17;100.00
3668;BME280;24099;47.102;15.440;2023-04-10T00:49:48;97935.31;;;3.11;100.00
3668;BME280;24099;47.102;15.440;2023-04-10T00:52:16;97924.78;;;3.02;100.00
3668;BME280;24099;47.102;15.440;2023-04-10T00:54:44;97919.56;;;3.02;100.00
3668;BME280;24099;47.102;15.440;2023-04-10T00:57:12;97927.75;;;3.08;100.00
3668;BME280;24099;47.102;15.440;2023-04-10T00:59:41;97926.34;;;3.16;100.00
3668;BME280;24099;47.102;15.440;2023-04-10T01:02:09;97922.66;;;3.07;100.00
3668;BME280;24099;47.102;15.440;2023-04-10T01:04:39;97929.06;;;3.14;100.00
3668;BME280;24099;47.102;15.440;2023-04-10T01:07:13;97933.28;;;3.04;100.00
3668;BME280;24099;47.102;15.440;2023-04-10T01:09:46;97922.44;;;2.99;100.00
3668;BME280;24099;47.102;15.440;2023-04-10T01:12:23;97921.59;;;2.98;100.00
3668;BME280;24099;47.102;15.440;2023-04-10T01:14:57;97923.84;;;2.92;100.00
3668;BME280;24099;47.102;15.440;2023-04-10T01:17:30;97913.81;;;2.98;100.00
3668;BME280;24099;47.102;15.440;2023-04-10T01:20:08;97916.53;;;3.08;100.00
3668;BME280;24099;47.102;15.440;2023-04-10T01:22:45;97919.22;;;2.95;100.00
3668;BME280;24099;47.102;15.440;2023-04-10T01:25:40;97918.84;;;2.89;100.00
3668;BME280;24099;47.102;15.440;2023-04-10T01:28:29;97920.50;;;2.79;100.00
3668;BME280;24099;47.102;15.440;2023-04-10T01:31:02;97917.31;;;2.75;100.00
3668;BME280;24099;47.102;15.440;2023-04-10T01:33:45;97914.06;;;2.60;100.00
3668;BME280;24099;47.102;15.440;2023-04-10T01:36:18;97914.25;;;2.46;100.00
3668;BME280;24099;47.102;15.440;2023-04-10T01:38:48;97918.13;;;2.40;100.00
3668;BME280;24099;47.102;15.440;2023-04-10T01:41:21;97913.72;;;2.30;100.00
3668;BME280;24099;47.102;15.440;2023-04-10T01:43:51;97909.56;;;2.16;100.00
3668;BME280;24099;47.102;15.440;2023-04-10T01:46:22;97913.75;;;2.06;100.00
3668;BME280;24099;47.102;15.440;2023-04-10T01:48:51;97903.84;;;1.87;100.00
3668;BME280;24099;47.102;15.440;2023-04-10T01:51:23;97906.94;;;1.92;100.00
3668;BME280;24099;47.102;15.440;2023-04-10T01:53:52;97909.13;;;1.98;100.00
3668;BME280;24099;47.102;15.440;2023-04-10T01:56:24;97909.81;;;2.00;100.00
3668;BME280;24099;47.102;15.440;2023-04-10T01:58:52;97907.38;;;1.86;100.00
3668;BME280;24099;47.102;15.440;2023-04-10T02:01:22;97906.53;;;1.62;100.00
3668;BME280;24099;47.102;15.440;2023-04-10T02:03:49;97902.00;;;1.53;100.00
3668;BME280;24099;47.102;15.440;2023-04-10T02:06:24;97901.63;;;1.70;100.00
3668;BME280;24099;47.102;15.440;2023-04-10T02:08:54;97904.03;;;1.60;100.00
3668;BME280;24099;47.102;15.440;2023-04-10T02:11:31;97904.44;;;1.30;100.00
3668;BME280;24099;47.102;15.440;2023-04-10T02:14:03;97900.13;;;1.55;100.00
3668;BME280;24099;47.102;15.440;2023-04-10T02:16:34;97906.47;;;1.51;100.00
3668;BME280;24099;47.102;15.440;2023-04-10T02:19:05;97912.22;;;1.18;100.00
3668;BME280;24099;47.102;15.440;2023-04-10T02:21:33;97911.81;;;1.11;100.00
3668;BME280;24099;47.102;15.440;2023-04-10T02:24:02;97917.63;;;1.15;100.00
3668;BME280;24099;47.102;15.440;2023-04-10T02:26:29;97915.53;;;1.07;100.00
3668;BME280;24099;47.102;15.440;2023-04-10T02:28:57;97912.25;;;0.92;100.00
3668;BME280;24099;47.102;15.440;2023-04-10T02:31:24;97909.66;;;0.92;100.00
3668;BME280;24099;47.102;15.440;2023-04-10T02:33:55;97911.31;;;0.93;100.00
3668;BME280;24099;47.102;15.440;2023-04-10T02:36:23;97901.88;;;0.80;100.00
3668;BME280;24099;47.102;15.440;2023-04-10T02:38:55;97899.91;;;0.71;100.00
3668;BME280;24099;47.102;15.440;2023-04-10T02:41:24;97900.22;;;0.79;100.00
3668;BME280;24099;47.102;15.440;2023-04-10T02:43:53;97903.41;;;0.69;100.00
3668;BME280;24099;47.102;15.440;2023-04-10T02:46:25;97900.63;;;0.60;100.00
3668;BME280;24099;47.102;15.440;2023-04-10T02:48:55;97907.97;;;0.53;100.00
3668;BME280;24099;47.102;15.440;2023-04-10T02:51:22;97911.09;;;0.58;100.00
3668;BME280;24099;47.102;15.440;2023-04-10T02:53:50;97907.56;;;0.59;100.00
3668;BME280;24099;47.102;15.440;2023-04-10T02:56:27;97908.06;;;0.64;100.00
3668;BME280;24099;47.102;15.440;2023-04-10T02:58:57;97904.44;;;0.54;100.00
3668;BME280;24099;47.102;15.440;2023-04-10T03:01:26;97894.16;;;0.40;100.00
3668;BME280;24099;47.102;15.440;2023-04-10T03:03:57;97907.31;;;0.37;100.00
3668;BME280;24099;47.102;15.440;2023-04-10T03:06:28;97903.22;;;0.60;100.00
3668;BME280;24099;47.102;15.440;2023-04-10T03:08:57;97904.66;;;0.51;100.00
3668;BME280;24099;47.102;15.440;2023-04-10T03:11:26;97900.28;;;0.39;100.00
3668;BME280;24099;47.102;15.440;2023-04-10T03:13:56;97903.38;;;0.44;100.00
3668;BME280;24099;47.102;15.440;2023-04-10T03:16:24;97897.66;;;0.26;100.00
3668;BME280;24099;47.102;15.440;2023-04-10T03:18:52;97906.34;;;0.25;100.00
3668;BME280;24099;47.102;15.440;2023-04-10T03:21:22;97904.00;;;0.35;100.00
3668;BME280;24099;47.102;15.440;2023-04-10T03:23:49;97903.66;;;0.27;100.00
3668;BME280;24099;47.102;15.440;2023-04-10T03:26:17;97903.56;;;0.28;100.00
3668;BME280;24099;47.102;15.440;2023-04-10T03:28:45;97911.25;;;0.43;100.00
3668;BME280;24099;47.102;15.440;2023-04-10T03:31:12;97908.94;;;0.25;100.00
3668;BME280;24099;47.102;15.440;2023-04-10T03:33:43;97910.78;;;0.23;100.00
3668;BME280;24099;47.102;15.440;2023-04-10T03:36:12;97906.44;;;0.24;100.00
3668;BME280;24099;47.102;15.440;2023-04-10T03:38:41;97916.59;;;0.27;100.00
3668;BME280;24099;47.102;15.440;2023-04-10T03:41:10;97912.69;;;0.34;100.00
3668;BME280;24099;47.102;15.440;2023-04-10T03:43:39;97913.88;;;0.16;100.00
3668;BME280;24099;47.102;15.440;2023-04-10T03:46:07;97909.13;;;0.22;100.00
3668;BME280;24099;47.102;15.440;2023-04-10T03:48:40;97915.88;;;0.25;100.00
3668;BME280;24099;47.102;15.440;2023-04-10T03:51:09;97910.75;;;0.11;100.00
3668;BME280;24099;47.102;15.440;2023-04-10T03:53:37;97908.84;;;0.27;100.00
3668;BME280;24099;47.102;15.440;2023-04-10T03:56:11;97904.78;;;0.23;100.00
3668;BME280;24099;47.102;15.440;2023-04-10T03:58:39;97908.72;;;0.16;100.00
3668;BME280;24099;47.102;15.440;2023-04-10T04:01:07;97897.47;;;0.03;100.00
3668;BME280;24099;47.102;15.440;2023-04-10T04:03:51;97905.13;;;0.04;100.00
3668;BME280;24099;47.102;15.440;2023-04-10T04:06:38;97910.63;;;-0.01;100.00
3668;BME280;24099;47.102;15.440;2023-04-10T04:09:23;97911.84;;;-0.06;100.00
3668;BME280;24099;47.102;15.440;2023-04-10T04:12:11;97913.50;;;-0.05;100.00
3668;BME280;24099;47.102;15.440;2023-04-10T04:14:38;97910.38;;;-0.10;100.00
3668;BME280;24099;47.102;15.440;2023-04-10T04:17:24;97912.78;;;-0.07;100.00
3668;BME280;24099;47.102;15.440;2023-04-10T04:20:15;97916.19;;;-0.07;100.00
3668;BME280;24099;47.102;15.440;2023-04-10T04:23:09;97915.06;;;-0.03;100.00
3668;BME280;24099;47.102;15.440;2023-04-10T04:25:56;97926.53;;;-0.07;100.00
3668;BME280;24099;47.102;15.440;2023-04-10T04:28:34;97920.53;;;-0.07;100.00
3668;BME280;24099;47.102;15.440;2023-04-10T04:31:44;97921.66;;;-0.11;100.00
3668;BME280;24099;47.102;15.440;2023-04-10T04:34:27;97921.47;;;-0.08;100.00
3668;BME280;24099;47.102;15.440;2023-04-10T04:37:27;97923.31;;;-0.10;100.00
3668;BME280;24099;47.102;15.440;2023-04-10T04:40:30;97924.69;;;-0.05;100.00
3668;BME280;24099;47.102;15.440;2023-04-10T04:43:21;97923.66;;;-0.02;100.00
3668;BME280;24099;47.102;15.440;2023-04-10T04:46:03;97921.81;;;0.00;100.00
3668;BME280;24099;47.102;15.440;2023-04-10T04:49:09;97919.50;;;-0.05;100.00
3668;BME280;24099;47.102;15.440;2023-04-10T04:52:04;97930.38;;;0.00;100.00
3668;BME280;24099;47.102;15.440;2023-04-10T04:54:44;97930.50;;;-0.01;100.00
3668;BME280;24099;47.102;15.440;2023-04-10T04:57:30;97926.03;;;0.01;100.00
3668;BME280;24099;47.102;15.440;2023-04-10T05:00:18;97926.63;;;-0.08;100.00
3668;BME280;24099;47.102;15.440;2023-04-10T05:03:04;97927.13;;;0.11;100.00
3668;BME280;24099;47.102;15.440;2023-04-10T05:05:41;97930.66;;;0.23;100.00
3668;BME280;24099;47.102;15.440;2023-04-10T05:08:29;97932.66;;;0.19;100.00
3668;BME280;24099;47.102;15.440;2023-04-10T05:11:05;97924.88;;;0.19;100.00
3668;BME280;24099;47.102;15.440;2023-04-10T05:13:41;97934.28;;;0.20;100.00
3668;BME280;24099;47.102;15.440;2023-04-10T05:16:20;97939.69;;;0.30;100.00
3668;BME280;24099;47.102;15.440;2023-04-10T05:19:01;97940.91;;;0.24;100.00
3668;BME280;24099;47.102;15.440;2023-04-10T05:21:55;97940.28;;;0.21;100.00
3668;BME280;24099;47.102;15.440;2023-04-10T05:24:49;97939.91;;;0.27;100.00
3668;BME280;24099;47.102;15.440;2023-04-10T05:27:25;97943.13;;;0.30;100.00
3668;BME280;24099;47.102;15.440;2023-04-10T05:30:12;97947.47;;;0.30;100.00
3668;BME280;24099;47.102;15.440;2023-04-10T05:33:06;97948.22;;;0.45;100.00
3668;BME280;24099;47.102;15.440;2023-04-10T05:36:06;97953.00;;;0.38;100.00
3668;BME280;24099;47.102;15.440;2023-04-10T05:38:47;97950.81;;;0.45;100.00
3668;BME280;24099;47.102;15.440;2023-04-10T05:41:35;97954.38;;;0.56;100.00
3668;BME280;24099;47.102;15.440;2023-04-10T05:44:24;97957.81;;;0.69;100.00
3668;BME280;24099;47.102;15.440;2023-04-10T05:46:57;97959.59;;;0.82;100.00
3668;BME280;24099;47.102;15.440;2023-04-10T05:49:42;97958.09;;;0.65;100.00
3668;BME280;24099;47.102;15.440;2023-04-10T05:52:47;97963.00;;;0.82;100.00
3668;BME280;24099;47.102;15.440;2023-04-10T05:55:35;97962.00;;;0.97;100.00
3668;BME280;24099;47.102;15.440;2023-04-10T05:58:21;97958.03;;;1.04;100.00
3668;BME280;24099;47.102;15.440;2023-04-10T06:01:18;97960.97;;;1.13;100.00
3668;BME280;24099;47.102;15.440;2023-04-10T06:03:52;97951.53;;;1.12;100.00
3668;BME280;24099;47.102;15.440;2023-04-10T06:06:22;97956.50;;;1.27;100.00
3668;BME280;24099;47.102;15.440;2023-04-10T06:08:52;97959.50;;;1.34;100.00
3668;BME280;24099;47.102;15.440;2023-04-10T06:11:20;97954.84;;;1.39;100.00
3668;BME280;24099;47.102;15.440;2023-04-10T06:13:52;97958.13;;;1.54;100.00
3668;BME280;24099;47.102;15.440;2023-04-10T06:16:26;97960.16;;;1.61;100.00
3668;BME280;24099;47.102;15.440;2023-04-10T06:18:54;97957.25;;;1.66;100.00
3668;BME280;24099;47.102;15.440;2023-04-10T06:21:22;97955.13;;;1.84;100.00
3668;BME280;24099;47.102;15.440;2023-04-10T06:23:49;97951.59;;;1.97;100.00
3668;BME280;24099;47.102;15.440;2023-04-10T06:26:19;97950.19;;;2.04;100.00
3668;BME280;24099;47.102;15.440;2023-04-10T06:28:47;97958.88;;;2.16;100.00
3668;BME280;24099;47.102;15.440;2023-04-10T06:31:16;97962.66;;;2.36;100.00
3668;BME280;24099;47.102;15.440;2023-04-10T06:33:47;97964.34;;;2.48;100.00
3668;BME280;24099;47.102;15.440;2023-04-10T06:36:17;97963.16;;;2.76;100.00
3668;BME280;24099;47.102;15.440;2023-04-10T06:39:00;97966.09;;;2.83;100.00
3668;BME280;24099;47.102;15.440;2023-04-10T06:41:32;97968.06;;;3.14;100.00
3668;BME280;24099;47.102;15.440;2023-04-10T06:44:13;97963.59;;;3.27;100.00
3668;BME280;24099;47.102;15.440;2023-04-10T06:46:41;97959.13;;;3.52;100.00
3668;BME280;24099;47.102;15.440;2023-04-10T06:49:09;97965.25;;;3.73;100.00
3668;BME280;24099;47.102;15.440;2023-04-10T06:51:36;97960.16;;;3.71;100.00
3668;BME280;24099;47.102;15.440;2023-04-10T06:54:04;97950.19;;;3.88;100.00
3668;BME280;24099;47.102;15.440;2023-04-10T06:56:33;97957.19;;;3.98;100.00
3668;BME280;24099;47.102;15.440;2023-04-10T06:59:00;97954.31;;;4.12;100.00
3668;BME280;24099;47.102;15.440;2023-04-10T07:01:28;97951.88;;;4.32;100.00
3668;BME280;24099;47.102;15.440;2023-04-10T07:03:56;97944.28;;;4.81;100.00
3668;BME280;24099;47.102;15.440;2023-04-10T07:06:24;97944.97;;;4.95;100.00
3668;BME280;24099;47.102;15.440;2023-04-10T07:08:52;97939.22;;;5.01;100.00
3668;BME280;24099;47.102;15.440;2023-04-10T07:11:20;97942.97;;;5.08;100.00
3668;BME280;24099;47.102;15.440;2023-04-10T07:13:50;97934.28;;;5.28;100.00
3668;BME280;24099;47.102;15.440;2023-04-10T07:16:23;97926.41;;;5.49;100.00
3668;BME280;24099;47.102;15.440;2023-04-10T07:18:51;97935.63;;;5.53;100.00
3668;BME280;24099;47.102;15.440;2023-04-10T07:21:19;97925.63;;;5.58;100.00
3668;BME280;24099;47.102;15.440;2023-04-10T07:23:51;97928.66;;;5.63;100.00
3668;BME280;24099;47.102;15.440;2023-04-10T07:26:19;97923.91;;;5.87;100.00
3668;BME280;24099;47.102;15.440;2023-04-10T07:28:48;97918.34;;;5.92;100.00
3668;BME280;24099;47.102;15.440;2023-04-10T07:31:16;97918.25;;;6.32;100.00
3668;BME280;24099;47.102;15.440;2023-04-10T07:33:45;97906.16;;;6.31;100.00
3668;BME280;24099;47.102;15.440;2023-04-10T07:36:13;97900.50;;;6.45;100.00
3668;BME280;24099;47.102;15.440;2023-04-10T07:38:42;97888.91;;;6.67;100.00
3668;BME280;24099;47.102;15.440;2023-04-10T07:41:09;97880.38;;;6.65;100.00
3668;BME280;24099;47.102;15.440;2023-04-10T07:43:37;97870.59;;;6.77;100.00
3668;BME280;24099;47.102;15.440;2023-04-10T07:46:10;97861.88;;;6.96;100.00
3668;BME280;24099;47.102;15.440;2023-04-10T07:48:37;97845.84;;;7.18;100.00
3668;BME280;24099;47.102;15.440;2023-04-10T07:51:06;97829.66;;;7.22;100.00
3668;BME280;24099;47.102;15.440;2023-04-10T07:53:35;97837.63;;;7.31;100.00
3668;BME280;24099;47.102;15.440;2023-04-10T07:56:03;97838.91;;;7.54;100.00
3668;BME280;24099;47.102;15.440;2023-04-10T07:58:31;97831.13;;;7.80;100.00
3668;BME280;24099;47.102;15.440;2023-04-10T08:00:59;97832.88;;;7.89;100.00
3668;BME280;24099;47.102;15.440;2023-04-10T08:03:28;97832.31;;;7.95;100.00
3668;BME280;24099;47.102;15.440;2023-04-10T08:05:56;97828.91;;;8.03;100.00
3668;BME280;24099;47.102;15.440;2023-04-10T08:08:23;97827.63;;;8.24;100.00
3668;BME280;24099;47.102;15.440;2023-04-10T08:10:51;97828.94;;;8.38;100.00
3668;BME280;24099;47.102;15.440;2023-04-10T08:13:19;97816.41;;;8.50;100.00
3668;BME280;24099;47.102;15.440;2023-04-10T08:15:47;97815.91;;;8.72;100.00
3668;BME280;24099;47.102;15.440;2023-04-10T08:18:17;97805.94;;;8.76;100.00
3668;BME280;24099;47.102;15.440;2023-04-10T08:20:46;97805.50;;;8.88;100.00
3668;BME280;24099;47.102;15.440;2023-04-10T08:23:14;97801.13;;;8.97;100.00
3668;BME280;24099;47.102;15.440;2023-04-10T08:25:41;97794.63;;;9.09;100.00
3668;BME280;24099;47.102;15.440;2023-04-10T08:28:09;97798.50;;;9.31;100.00
3668;BME280;24099;47.102;15.440;2023-04-10T08:30:37;97789.38;;;9.51;100.00
3668;BME280;24099;47.102;15.440;2023-04-10T08:33:05;97794.31;;;9.62;100.00
3668;BME280;24099;47.102;15.440;2023-04-10T08:35:33;97795.13;;;9.63;100.00
3668;BME280;24099;47.102;15.440;2023-04-10T08:38:02;97793.84;;;9.83;100.00
3668;BME280;24099;47.102;15.440;2023-04-10T08:40:29;97792.41;;;9.89;100.00
3668;BME280;24099;47.102;15.440;2023-04-10T08:42:57;97790.75;;;10.04;100.00
3668;BME280;24099;47.102;15.440;2023-04-10T08:45:25;97791.44;;;9.98;100.00
3668;BME280;24099;47.102;15.440;2023-04-10T08:47:55;97789.66;;;10.23;99.66
3668;BME280;24099;47.102;15.440;2023-04-10T08:50:24;97773.06;;;10.39;99.08
3668;BME280;24099;47.102;15.440;2023-04-10T08:52:55;97772.34;;;10.69;96.77
3668;BME280;24099;47.102;15.440;2023-04-10T08:55:24;97778.97;;;10.57;96.09
3668;BME280;24099;47.102;15.440;2023-04-10T08:57:53;97778.22;;;10.87;96.40
3668;BME280;24099;47.102;15.440;2023-04-10T09:00:23;97782.22;;;10.75;92.51
3668;BME280;24099;47.102;15.440;2023-04-10T09:02:51;97775.84;;;10.53;85.00
3668;BME280;24099;47.102;15.440;2023-04-10T09:05:27;97773.00;;;10.63;84.76
3668;BME280;24099;47.102;15.440;2023-04-10T09:08:00;97761.63;;;11.26;86.57
3668;BME280;24099;47.102;15.440;2023-04-10T09:10:29;97761.38;;;11.44;87.83
3668;BME280;24099;47.102;15.440;2023-04-10T09:12:59;97758.88;;;11.50;87.22
3668;BME280;24099;47.102;15.440;2023-04-10T09:15:27;97761.25;;;11.76;82.75
3668;BME280;24099;47.102;15.440;2023-04-10T09:17:58;97759.88;;;12.03;83.99
3668;BME280;24099;47.102;15.440;2023-04-10T09:20:31;97763.50;;;11.79;82.64
3668;BME280;24099;47.102;15.440;2023-04-10T09:22:59;97761.72;;;11.71;82.68
3668;BME280;24099;47.102;15.440;2023-04-10T09:25:33;97755.13;;;11.76;82.86
3668;BME280;24099;47.102;15.440;2023-04-10T09:28:08;97755.91;;;11.84;80.99
3668;BME280;24099;47.102;15.440;2023-04-10T09:30:38;97751.59;;;12.29;80.29
3668;BME280;24099;47.102;15.440;2023-04-10T09:33:23;97745.28;;;12.82;82.02
3668;BME280;24099;47.102;15.440;2023-04-10T09:35:53;97743.50;;;12.97;79.63
3668;BME280;24099;47.102;15.440;2023-04-10T09:38:21;97739.66;;;12.18;77.67
3668;BME280;24099;47.102;15.440;2023-04-10T09:40:50;97730.63;;;12.80;79.33
3668;BME280;24099;47.102;15.440;2023-04-10T09:43:19;97735.81;;;13.02;74.24
3668;BME280;24099;47.102;15.440;2023-04-10T09:45:51;97737.09;;;13.21;74.84
3668;BME280;24099;47.102;15.440;2023-04-10T09:48:22;97741.28;;;13.01;72.21
3668;BME280;24099;47.102;15.440;2023-04-10T09:50:51;97739.97;;;11.69;71.16
3668;BME280;24099;47.102;15.440;2023-04-10T09:53:21;97730.47;;;11.91;73.29
3668;BME280;24099;47.102;15.440;2023-04-10T09:55:50;97724.59;;;13.00;74.24
3668;BME280;24099;47.102;15.440;2023-04-10T09:58:18;97726.91;;;12.89;70.36
3668;BME280;24099;47.102;15.440;2023-04-10T10:00:47;97729.19;;;13.21;71.04
3668;BME280;24099;47.102;15.440;2023-04-10T10:03:16;97725.63;;;13.29;71.75
3668;BME280;24099;47.102;15.440;2023-04-10T10:05:48;97728.19;;;12.78;70.94
3668;BME280;24099;47.102;15.440;2023-04-10T10:08:16;97725.44;;;13.30;69.93
3668;BME280;24099;47.102;15.440;2023-04-10T10:10:46;97728.44;;;11.70;67.30
3668;BME280;24099;47.102;15.440;2023-04-10T10:13:19;97727.53;;;12.61;71.73
3668;BME280;24099;47.102;15.440;2023-04-10T10:15:53;97710.78;;;12.84;70.04
3668;BME280;24099;47.102;15.440;2023-04-10T10:18:30;97717.88;;;13.13;72.87
3668;BME280;24099;47.102;15.440;2023-04-10T10:21:00;97713.13;;;13.23;70.13
3668;BME280;24099;47.102;15.440;2023-04-10T10:23:31;97713.44;;;13.49;71.37
3668;BME280;24099;47.102;15.440;2023-04-10T10:28:45;97711.16;;;13.46;69.59
3668;BME280;24099;47.102;15.440;2023-04-10T10:31:14;97705.84;;;13.25;70.19
3668;BME280;24099;47.102;15.440;2023-04-10T10:33:45;97713.31;;;13.06;68.03
3668;BME280;24099;47.102;15.440;2023-04-10T10:36:15;97711.88;;;13.19;73.39
3668;BME280;24099;47.102;15.440;2023-04-10T10:38:49;97703.56;;;13.22;73.36
3668;BME280;24099;47.102;15.440;2023-04-10T10:41:25;97706.84;;;13.24;73.45
3668;BME280;24099;47.102;15.440;2023-04-10T10:44:05;97699.03;;;13.16;70.66
3668;BME280;24099;47.102;15.440;2023-04-10T10:46:39;97705.47;;;13.13;70.01
3668;BME280;24099;47.102;15.440;2023-04-10T10:49:12;97705.13;;;12.87;69.41
3668;BME280;24099;47.102;15.440;2023-04-10T10:51:44;97697.19;;;13.01;68.83
3668;BME280;24099;47.102;15.440;2023-04-10T10:54:28;97694.09;;;12.83;70.17
3668;BME280;24099;47.102;15.440;2023-04-10T10:56:56;97697.56;;;12.02;70.16
3668;BME280;24099;47.102;15.440;2023-04-10T11:02:35;97689.88;;;12.15;71.88
3668;BME280;24099;47.102;15.440;2023-04-10T11:05:04;97683.78;;;12.29;70.85
3668;BME280;24099;47.102;15.440;2023-04-10T11:13:24;97665.78;;;13.85;67.68
3668;BME280;24099;47.102;15.440;2023-04-10T11:15:52;97653.44;;;14.48;65.81
3668;BME280;24099;47.102;15.440;2023-04-10T11:19:02;97659.06;;;14.10;66.97
3668;BME280;24099;47.102;15.440;2023-04-10T11:22:21;97644.75;;;14.95;64.44
3668;BME280;24099;47.102;15.440;2023-04-10T11:25:09;97644.63;;;14.41;66.52
3668;BME280;24099;47.102;15.440;2023-04-10T11:27:44;97652.56;;;13.64;66.80
3668;BME280;24099;47.102;15.440;2023-04-10T11:30:34;97642.59;;;13.66;67.94
3668;BME280;24099;47.102;15.440;2023-04-10T11:33:03;97646.41;;;13.57;68.32
3668;BME280;24099;47.102;15.440;2023-04-10T11:35:44;97645.94;;;13.96;68.68
3668;BME280;24099;47.102;15.440;2023-04-10T11:38:14;97648.00;;;13.79;67.97
3668;BME280;24099;47.102;15.440;2023-04-10T11:40:56;97645.41;;;13.58;67.14
3668;BME280;24099;47.102;15.440;2023-04-10T11:43:24;97645.56;;;13.77;67.34
3668;BME280;24099;47.102;15.440;2023-04-10T11:46:02;97636.47;;;13.59;67.69
3668;BME280;24099;47.102;15.440;2023-04-10T11:48:31;97632.09;;;13.72;67.28
3668;BME280;24099;47.102;15.440;2023-04-10T11:51:06;97633.28;;;13.70;66.63
3668;BME280;24099;47.102;15.440;2023-04-10T11:53:34;97627.78;;;14.21;68.31
3668;BME280;24099;47.102;15.440;2023-04-10T11:56:03;97631.34;;;14.34;66.32
3668;BME280;24099;47.102;15.440;2023-04-10T11:58:39;97623.97;;;14.02;65.13
3668;BME280;24099;47.102;15.440;2023-04-10T12:01:10;97625.03;;;13.16;66.46
3668;BME280;24099;47.102;15.440;2023-04-10T12:03:44;97618.16;;;14.41;68.36
3668;BME280;24099;47.102;15.440;2023-04-10T12:06:14;97612.97;;;15.08;64.69
3668;BME280;24099;47.102;15.440;2023-04-10T12:08:44;97614.78;;;15.08;65.82
3668;BME280;24099;47.102;15.440;2023-04-10T12:11:13;97610.59;;;15.33;68.79
3668;BME280;24099;47.102;15.440;2023-04-10T12:13:42;97603.47;;;14.10;64.66
3668;BME280;24099;47.102;15.440;2023-04-10T12:16:10;97605.19;;;14.25;68.15
3668;BME280;24099;47.102;15.440;2023-04-10T12:18:47;97595.19;;;14.48;66.99
3668;BME280;24099;47.102;15.440;2023-04-10T12:21:22;97590.69;;;14.21;67.39
3668;BME280;24099;47.102;15.440;2023-04-10T12:23:51;97587.09;;;14.28;66.79
3668;BME280;24099;47.102;15.440;2023-04-10T12:26:20;97585.91;;;14.31;71.51
3668;BME280;24099;47.102;15.440;2023-04-10T12:28:51;97590.09;;;14.94;67.14
3668;BME280;24099;47.102;15.440;2023-04-10T12:31:26;97592.50;;;14.89;66.16
3668;BME280;24099;47.102;15.440;2023-04-10T12:33:55;97584.41;;;14.50;66.25
3668;BME280;24099;47.102;15.440;2023-04-10T12:36:28;97580.41;;;14.04;65.13
3668;BME280;24099;47.102;15.440;2023-04-10T12:38:57;97579.53;;;14.19;64.48
3668;BME280;24099;47.102;15.440;2023-04-10T12:41:27;97579.41;;;13.50;66.21
3668;BME280;24099;47.102;15.440;2023-04-10T12:44:07;97574.41;;;13.89;67.05
3668;BME280;24099;47.102;15.440;2023-04-10T12:46:37;97566.66;;;14.16;65.38
3668;BME280;24099;47.102;15.440;2023-04-10T12:49:10;97562.44;;;13.93;67.02
3668;BME280;24099;47.102;15.440;2023-04-10T12:51:44;97554.53;;;14.00;68.71
3668;BME280;24099;47.102;15.440;2023-04-10T12:54:27;97556.28;;;13.58;67.80
3668;BME280;24099;47.102;15.440;2023-04-10T12:56:55;97551.63;;;13.39;66.85
3668;BME280;24099;47.102;15.440;2023-04-10T12:59:24;97545.56;;;13.94;67.82
3668;BME280;24099;47.102;15.440;2023-04-10T13:01:53;97547.28;;;14.43;64.97
3668;BME280;24099;47.102;15.440;2023-04-10T13:04:21;97550.59;;;14.24;65.16
3668;BME280;24099;47.102;15.440;2023-04-10T13:06:51;97553.63;;;14.48;63.49
3668;BME280;24099;47.102;15.440;2023-04-10T13:09:18;97546.22;;;14.03;67.45
3668;BME280;24099;47.102;15.440;2023-04-10T13:11:48;97539.38;;;14.50;62.76
3668;BME280;24099;47.102;15.440;2023-04-10T13:14:18;97541.47;;;13.92;64.12
3668;BME280;24099;47.102;15.440;2023-04-10T13:16:45;97535.19;;;14.75;62.49
3668;BME280;24099;47.102;15.440;2023-04-10T13:19:13;97537.56;;;14.22;65.08
3668;BME280;24099;47.102;15.440;2023-04-10T13:21:41;97534.38;;;14.33;64.17
3668;BME280;24099;47.102;15.440;2023-04-10T13:24:10;97522.41;;;15.05;62.42
3668;BME280;24099;47.102;15.440;2023-04-10T13:26:38;97515.31;;;15.38;62.88
3668;BME280;24099;47.102;15.440;2023-04-10T13:29:08;97516.16;;;15.59;61.84
3668;BME280;24099;47.102;15.440;2023-04-10T13:31:36;97522.22;;;15.39;63.27
3668;BME280;24099;47.102;15.440;2023-04-10T13:34:07;97514.13;;;14.54;59.91
3668;BME280;24099;47.102;15.440;2023-04-10T13:36:35;97517.81;;;14.66;60.55
3668;BME280;24099;47.102;15.440;2023-04-10T13:39:04;97511.75;;;14.78;60.56
3668;BME280;24099;47.102;15.440;2023-04-10T13:41:33;97502.03;;;15.19;59.27